Time;durP1;ratioP1;P1;durP2;ratioP2;P2;SDS_P1;SDS_P2;PMS_P1;PMS_P2;Temp;Humidity;BMP_temperature;BMP_pressure;BME280_temperature;BME280_humidity;BME280_pressure;Samples;Min_cycle;Max_cycle;Signal;HPM_P1;HPM_P2
2021/05/29 00:00:17;;;;;;;3.33;1.02;;;16.60;57.70;;;;;;5074910;28;20422;-68
2021/05/29 00:02:44;;;;;;;6.18;1.50;;;16.80;57.20;;;;;;5074117;28;20029;-61
2021/05/29 00:05:12;;;;;;;2.80;1.30;;;16.90;56.30;;;;;;5074517;28;20102;-65
2021/05/29 00:07:39;;;;;;;2.75;1.10;;;17.00;56.80;;;;;;5074873;28;20074;-61
2021/05/29 00:10:07;;;;;;;4.13;1.15;;;17.10;55.70;;;;;;5074585;28;20117;-60
2021/05/29 00:12:34;;;;;;;2.50;0.82;;;17.20;54.20;;;;;;5074429;28;20058;-60
2021/05/29 00:15:02;;;;;;;1.63;0.85;;;17.30;55.10;;;;;;5074736;28;20505;-66
2021/05/29 00:17:29;;;;;;;2.83;1.10;;;17.30;55.50;;;;;;5074653;28;20464;-67
2021/05/29 00:19:57;;;;;;;4.85;1.25;;;17.60;55.10;;;;;;5074980;28;20404;-58
2021/05/29 00:22:24;;;;;;;4.80;1.42;;;17.70;54.20;;;;;;5074392;28;20029;-66
2021/05/29 00:24:52;;;;;;;2.80;1.13;;;17.90;54.50;;;;;;5074390;28;20029;-64
2021/05/29 00:27:19;;;;;;;2.03;1.08;;;18.00;53.80;;;;;;5074337;28;20374;-65
2021/05/29 00:29:46;;;;;;;2.08;0.90;;;18.20;53.60;;;;;;5074044;28;20050;-60
2021/05/29 00:32:14;;;;;;;3.85;1.17;;;18.30;53.80;;;;;;5073987;28;20430;-63
2021/05/29 00:34:41;;;;;;;3.72;1.23;;;18.60;52.70;;;;;;5072437;28;20048;-64
2021/05/29 00:37:08;;;;;;;2.88;1.13;;;18.90;53.10;;;;;;5072283;28;20072;-55
2021/05/29 00:39:36;;;;;;;2.58;1.23;;;19.00;52.70;;;;;;5074172;28;20353;-55
2021/05/29 00:42:03;;;;;;;2.53;1.00;;;19.00;51.80;;;;;;5074054;28;20107;-62
2021/05/29 00:45:00;;;;;;;4.07;0.88;;;19.10;51.90;;;;;;5073500;28;20017;-60
2021/05/29 00:47:29;;;;;;;2.03;1.00;;;19.20;52.90;;;;;;5071639;28;20068;-59
2021/05/29 00:49:59;;;;;;;2.72;1.08;;;19.40;52.20;;;;;;5073407;28;20141;-62
2021/05/29 00:52:27;;;;;;;4.53;1.10;;;19.40;52.20;;;;;;5072264;28;20024;-56
2021/05/29 00:54:55;;;;;;;3.05;0.82;;;19.50;51.70;;;;;;5073992;28;20478;-64
2021/05/29 00:57:23;;;;;;;3.05;0.75;;;19.70;51.50;;;;;;5072092;28;20032;-67
2021/05/29 00:59:50;;;;;;;3.22;0.93;;;19.80;51.20;;;;;;5073476;28;20043;-67
2021/05/29 01:02:18;;;;;;;2.55;1.00;;;19.80;50.60;;;;;;5073854;28;20028;-60
2021/05/29 01:04:45;;;;;;;2.58;1.02;;;19.90;50.10;;;;;;5072157;28;20547;-64
2021/05/29 01:07:17;;;;;;;4.32;1.23;;;20.00;50.70;;;;;;5073170;28;20387;-61
2021/05/29 01:09:45;;;;;;;4.82;1.42;;;20.20;50.40;;;;;;5073203;28;20459;-59
2021/05/29 01:12:18;;;;;;;4.53;1.08;;;20.40;49.70;;;;;;5073191;28;20048;-66
2021/05/29 01:17:16;;;;;;;4.95;1.60;;;20.40;49.80;;;;;;5073037;28;20085;-54
2021/05/29 01:19:44;;;;;;;3.90;1.55;;;20.50;48.90;;;;;;5071784;28;20021;-65
2021/05/29 01:22:11;;;;;;;6.28;1.20;;;20.60;48.80;;;;;;5072952;28;20047;-60
2021/05/29 01:24:39;;;;;;;5.75;1.30;;;20.80;48.90;;;;;;5072678;28;20024;-56
2021/05/29 01:27:08;;;;;;;3.20;1.15;;;20.70;48.70;;;;;;5072524;28;20033;-59
2021/05/29 01:29:35;;;;;;;4.55;1.80;;;20.70;48.90;;;;;;5072410;28;20029;-60
2021/05/29 01:32:07;;;;;;;1.88;0.80;;;20.50;49.80;;;;;;5071324;28;20333;-54
2021/05/29 01:34:36;;;;;;;3.03;1.20;;;20.40;50.00;;;;;;5072266;28;20543;-59
2021/05/29 01:37:05;;;;;;;4.30;1.52;;;20.30;49.60;;;;;;5073082;28;20020;-58
2021/05/29 01:39:33;;;;;;;2.45;0.98;;;20.30;50.30;;;;;;5073286;28;20032;-66
2021/05/29 01:42:00;;;;;;;11.35;1.80;;;20.20;50.30;;;;;;5072521;28;20083;-66
2021/05/29 01:44:28;;;;;;;4.13;1.10;;;20.10;50.20;;;;;;5072042;28;20085;-62
2021/05/29 01:46:55;;;;;;;5.85;1.30;;;20.00;50.40;;;;;;5072897;28;20031;-64
2021/05/29 01:49:22;;;;;;;3.70;1.17;;;19.90;50.70;;;;;;5072415;28;20037;-69
2021/05/29 01:51:50;;;;;;;2.65;0.90;;;19.70;50.50;;;;;;5072628;28;20107;-59
2021/05/29 01:54:17;;;;;;;3.00;1.08;;;19.60;52.60;;;;;;5072889;28;20099;-62
2021/05/29 01:56:45;;;;;;;4.10;1.50;;;19.50;51.80;;;;;;5072631;28;20027;-65
2021/05/29 01:59:12;;;;;;;2.63;1.10;;;19.40;52.10;;;;;;5072370;28;20368;-68
2021/05/29 02:01:39;;;;;;;2.28;1.10;;;19.30;52.60;;;;;;5072428;28;20025;-66
2021/05/29 02:04:07;;;;;;;2.15;0.82;;;19.10;53.70;;;;;;5072165;28;20051;-60
2021/05/29 02:06:34;;;;;;;3.35;0.80;;;19.10;53.90;;;;;;5071692;28;20462;-66
2021/05/29 02:09:01;;;;;;;4.50;1.33;;;19.20;54.30;;;;;;5072370;28;20044;-64
2021/05/29 02:11:29;;;;;;;4.18;1.67;;;19.40;53.40;;;;;;5071971;28;20067;-64
2021/05/29 02:13:56;;;;;;;4.05;1.30;;;19.50;52.40;;;;;;5072367;28;20024;-63
2021/05/29 02:16:23;;;;;;;4.72;1.63;;;19.50;52.20;;;;;;5072053;28;20074;-64
2021/05/29 02:18:51;;;;;;;2.50;1.23;;;19.40;51.90;;;;;;5072291;28;20052;-67
2021/05/29 02:21:18;;;;;;;3.53;1.88;;;19.40;52.40;;;;;;5072017;28;20103;-54
2021/05/29 02:23:49;;;;;;;5.38;1.30;;;19.30;52.60;;;;;;5072337;28;20028;-64
2021/05/29 02:26:21;;;;;;;2.72;0.80;;;19.20;52.80;;;;;;5072213;28;20092;-61
2021/05/29 02:28:54;;;;;;;6.07;1.25;;;19.10;53.10;;;;;;5072318;28;20036;-66
2021/05/29 02:31:23;;;;;;;2.72;1.02;;;19.00;53.40;;;;;;5072052;28;20021;-64
2021/05/29 02:33:50;;;;;;;2.03;0.80;;;19.00;54.90;;;;;;5071945;28;20387;-60
2021/05/29 02:36:18;;;;;;;3.72;1.10;;;18.90;54.60;;;;;;5071630;28;20320;-53
2021/05/29 02:38:46;;;;;;;3.55;1.40;;;18.90;54.10;;;;;;5065437;28;20025;-53
2021/05/29 02:41:14;;;;;;;5.00;1.67;;;18.90;53.80;;;;;;5067609;28;20090;-51
2021/05/29 02:43:42;;;;;;;2.97;1.27;;;18.90;54.30;;;;;;5070434;28;20476;-49
2021/05/29 02:46:10;;;;;;;8.98;1.20;;;19.00;54.80;;;;;;5068100;28;20020;-54
2021/05/29 02:48:38;;;;;;;2.75;1.13;;;19.00;54.20;;;;;;5067681;28;20055;-55
2021/05/29 02:51:05;;;;;;;3.28;1.27;;;18.90;54.00;;;;;;5068241;28;20114;-52
2021/05/29 02:53:33;;;;;;;3.65;1.27;;;18.90;54.40;;;;;;5071898;28;20048;-60
2021/05/29 02:56:00;;;;;;;4.22;1.10;;;18.90;54.50;;;;;;5072006;28;20025;-61
2021/05/29 02:58:28;;;;;;;5.75;1.92;;;18.80;54.40;;;;;;5071476;28;20071;-60
2021/05/29 03:00:55;;;;;;;3.80;1.13;;;18.80;54.30;;;;;;5071661;28;20049;-66
2021/05/29 03:03:23;;;;;;;11.25;1.80;;;18.60;54.70;;;;;;5071354;28;20025;-66
2021/05/29 03:05:50;;;;;;;2.08;0.85;;;18.60;55.60;;;;;;5071114;28;20036;-64
2021/05/29 03:08:20;;;;;;;3.83;1.52;;;18.50;55.40;;;;;;5071382;28;20375;-66
2021/05/29 03:10:49;;;;;;;7.40;1.55;;;18.50;54.90;;;;;;5070771;28;20048;-61
2021/05/29 03:13:17;;;;;;;2.67;1.30;;;18.50;55.10;;;;;;5071327;28;20082;-63
2021/05/29 03:15:44;;;;;;;2.90;1.35;;;18.40;55.70;;;;;;5071761;28;20037;-60
2021/05/29 03:18:12;;;;;;;4.70;1.23;;;18.40;55.20;;;;;;5074384;28;20029;-55
2021/05/29 03:20:39;;;;;;;6.38;1.73;;;18.30;55.70;;;;;;5074258;28;20065;-55
2021/05/29 03:23:07;;;;;;;1.45;0.68;;;18.30;56.20;;;;;;5076245;28;20549;-65
2021/05/29 03:25:35;;;;;;;4.63;1.50;;;18.20;55.70;;;;;;5075550;28;20031;-67
2021/05/29 03:28:04;;;;;;;4.38;1.30;;;18.20;56.30;;;;;;5075897;28;20371;-56
2021/05/29 03:30:32;;;;;;;3.28;1.40;;;18.10;56.30;;;;;;5075090;28;20028;-67
2021/05/29 03:32:59;;;;;;;3.85;1.58;;;18.10;56.70;;;;;;5075259;28;20387;-61
2021/05/29 03:35:28;;;;;;;4.68;1.17;;;18.10;56.40;;;;;;5074953;28;20132;-67
2021/05/29 03:37:56;;;;;;;6.03;1.50;;;18.10;56.90;;;;;;5075157;28;20479;-66
2021/05/29 03:40:23;;;;;;;2.40;1.00;;;18.10;57.10;;;;;;5075153;28;20060;-58
2021/05/29 03:42:52;;;;;;;2.08;1.08;;;18.00;57.00;;;;;;5075173;28;20541;-65
2021/05/29 03:45:21;;;;;;;3.90;1.45;;;18.00;56.90;;;;;;5075162;28;20043;-60
2021/05/29 03:47:49;;;;;;;2.90;1.20;;;18.00;56.80;;;;;;5075088;28;20021;-64
2021/05/29 03:50:20;;;;;;;4.85;1.40;;;18.00;56.90;;;;;;5074483;28;20098;-64
2021/05/29 03:52:51;;;;;;;4.10;1.40;;;18.00;57.30;;;;;;5074837;28;20033;-66
2021/05/29 03:55:20;;;;;;;3.10;1.33;;;18.00;57.20;;;;;;5074863;28;20035;-62
2021/05/29 03:57:49;;;;;;;3.67;1.17;;;17.90;57.10;;;;;;5074734;28;20428;-60
2021/05/29 04:00:20;;;;;;;5.20;1.65;;;17.90;57.10;;;;;;5074448;28;20051;-62
2021/05/29 04:02:48;;;;;;;4.95;1.42;;;17.90;57.10;;;;;;5074277;28;20020;-62
2021/05/29 04:05:16;;;;;;;5.88;1.50;;;17.90;57.30;;;;;;5074439;28;20016;-68
2021/05/29 04:07:44;;;;;;;4.00;1.40;;;17.80;57.50;;;;;;5074392;28;20025;-68
2021/05/29 04:10:14;;;;;;;3.30;1.38;;;17.80;57.50;;;;;;5074374;28;20125;-64
2021/05/29 04:12:42;;;;;;;4.90;1.35;;;17.80;57.90;;;;;;5066473;28;20133;-52
2021/05/29 04:15:10;;;;;;;2.80;1.30;;;17.80;57.70;;;;;;5071358;28;20028;-50
2021/05/29 04:17:38;;;;;;;6.68;2.47;;;17.80;57.80;;;;;;5075150;28;20024;-53
2021/05/29 04:20:07;;;;;;;5.88;2.83;;;17.80;57.80;;;;;;5070730;28;20013;-52
2021/05/29 04:22:35;;;;;;;9.75;5.28;;;17.80;58.00;;;;;;5070945;28;20060;-53
2021/05/29 04:25:05;;;;;;;17.25;10.07;;;17.80;57.80;;;;;;5068466;28;20051;-51
2021/05/29 04:27:33;;;;;;;10.43;6.93;;;17.80;58.00;;;;;;5069874;28;20032;-47
2021/05/29 04:30:01;;;;;;;7.60;5.82;;;17.80;57.80;;;;;;5073022;28;20478;-51
2021/05/29 04:32:28;;;;;;;10.38;6.47;;;17.80;58.10;;;;;;5071010;28;20032;-56
2021/05/29 04:34:56;;;;;;;11.82;8.15;;;17.80;58.10;;;;;;5065723;28;20097;-54
2021/05/29 04:37:23;;;;;;;16.67;9.45;;;17.90;58.20;;;;;;5071546;28;20029;-55
2021/05/29 04:39:50;;;;;;;12.27;9.02;;;17.80;58.30;;;;;;5070731;28;20023;-54
2021/05/29 04:42:18;;;;;;;15.10;9.27;;;17.80;58.20;;;;;;5071063;28;20068;-57
2021/05/29 04:44:45;;;;;;;15.02;9.43;;;17.80;58.00;;;;;;5066980;28;20484;-53
2021/05/29 04:47:13;;;;;;;17.40;11.48;;;17.90;58.40;;;;;;5070607;28;20103;-56
2021/05/29 04:49:40;;;;;;;22.17;12.73;;;17.90;58.50;;;;;;5070568;28;20036;-58
2021/05/29 04:52:08;;;;;;;16.75;12.32;;;17.80;58.70;;;;;;5070539;28;20033;-52
2021/05/29 04:54:38;;;;;;;15.45;11.65;;;17.90;58.50;;;;;;5066882;28;20036;-52
2021/05/29 04:57:05;;;;;;;14.38;11.70;;;17.90;58.90;;;;;;5071007;28;20387;-54
2021/05/29 04:59:33;;;;;;;16.85;12.13;;;17.90;59.20;;;;;;5070809;28;20020;-56
2021/05/29 05:02:00;;;;;;;13.05;11.05;;;17.90;59.50;;;;;;5069015;28;20503;-63
2021/05/29 05:04:28;;;;;;;19.33;12.93;;;17.90;59.60;;;;;;5063035;28;20091;-58
2021/05/29 05:06:55;;;;;;;24.33;15.02;;;17.90;59.80;;;;;;5070808;28;20021;-55
2021/05/29 05:09:23;;;;;;;18.95;13.05;;;17.90;59.80;;;;;;5069336;28;20123;-54
2021/05/29 05:11:51;;;;;;;19.52;11.57;;;17.90;60.10;;;;;;5070303;28;20099;-55
2021/05/29 05:14:18;;;;;;;13.93;7.55;;;17.90;60.20;;;;;;5072676;28;20379;-61
2021/05/29 05:16:46;;;;;;;14.77;8.07;;;17.70;55.80;;;;;;5071575;28;20103;-57
2021/05/29 05:19:14;;;;;;;18.70;7.53;;;17.50;57.60;;;;;;5072533;28;20021;-62
2021/05/29 05:21:41;;;;;;;9.85;2.47;;;17.40;56.70;;;;;;5071039;28;20058;-51
2021/05/29 05:24:09;;;;;;;10.38;3.85;;;17.00;59.10;;;;;;5072975;28;20022;-52
2021/05/29 05:26:37;;;;;;;8.07;3.25;;;17.10;59.50;;;;;;5073009;28;20396;-63
2021/05/29 05:29:04;;;;;;;13.35;8.07;;;17.10;60.40;;;;;;5071296;28;20066;-62
2021/05/29 05:31:34;;;;;;;10.50;3.92;;;17.30;58.80;;;;;;5072637;28;20017;-54
2021/05/29 05:34:07;;;;;;;21.05;5.63;;;17.40;56.00;;;;;;5073184;28;20048;-57
2021/05/29 05:36:36;;;;;;;15.45;4.88;;;17.10;58.70;;;;;;5072802;28;20101;-61
2021/05/29 05:39:08;;;;;;;7.80;3.10;;;17.20;59.40;;;;;;5072850;28;20115;-58
2021/05/29 05:41:36;;;;;;;7.95;3.80;;;17.10;58.80;;;;;;5072012;28;20025;-57
2021/05/29 05:44:05;;;;;;;6.65;3.15;;;17.20;58.70;;;;;;5072324;28;20030;-59
2021/05/29 05:46:34;;;;;;;16.25;4.03;;;17.40;60.30;;;;;;5070840;28;20048;-61
2021/05/29 05:49:07;;;;;;;9.38;3.70;;;17.30;59.60;;;;;;5055659;28;20550;-54
2021/05/29 05:51:38;;;;;;;7.32;2.20;;;17.10;56.70;;;;;;5049736;28;20458;-58
2021/05/29 05:54:05;;;;;;;5.85;2.33;;;17.10;56.60;;;;;;5052426;28;20031;-53
2021/05/29 05:56:33;;;;;;;11.57;4.13;;;17.00;56.60;;;;;;5052253;28;20021;-57
2021/05/29 05:59:00;;;;;;;8.60;2.35;;;17.00;61.50;;;;;;5052216;28;20032;-59
2021/05/29 06:01:29;;;;;;;24.33;4.30;;;16.90;59.70;;;;;;5049819;28;20087;-54
2021/05/29 06:03:56;;;;;;;18.27;4.68;;;17.20;62.10;;;;;;5051613;28;20094;-58
2021/05/29 06:06:27;;;;;;;9.38;3.72;;;17.40;62.80;;;;;;5051905;28;20029;-49
2021/05/29 06:08:55;;;;;;;13.13;4.22;;;17.50;59.70;;;;;;5051427;28;20040;-52
2021/05/29 06:11:22;;;;;;;12.43;4.28;;;17.60;62.20;;;;;;5050862;28;20137;-56
2021/05/29 06:19:11;;;;;;;10.35;2.88;;;17.70;59.10;;;;;;5052025;28;20040;-54
2021/05/29 06:21:43;;;;;;;11.25;3.28;;;17.90;59.90;;;;;;5052059;28;20021;-59
2021/05/29 06:24:11;;;;;;;12.85;3.42;;;17.90;60.30;;;;;;5050273;28;20036;-55
2021/05/29 06:26:39;;;;;;;11.65;2.85;;;17.90;60.20;;;;;;5051855;28;20028;-54
2021/05/29 06:29:07;;;;;;;12.30;2.58;;;18.00;60.70;;;;;;5050365;28;20040;-60
2021/05/29 06:31:34;;;;;;;13.43;3.00;;;18.00;60.70;;;;;;5051740;28;20044;-53
2021/05/29 06:34:02;;;;;;;17.23;3.35;;;18.00;59.90;;;;;;5051800;28;20060;-62
2021/05/29 06:36:31;;;;;;;11.40;2.72;;;18.00;60.10;;;;;;5051921;28;20025;-54
2021/05/29 06:38:59;;;;;;;14.35;2.58;;;18.00;59.00;;;;;;5051593;28;20025;-56
2021/05/29 06:41:26;;;;;;;9.95;3.08;;;18.00;60.10;;;;;;5050941;28;20017;-56
2021/05/29 06:43:54;;;;;;;11.98;2.35;;;18.00;60.50;;;;;;5050450;28;20422;-48
2021/05/29 06:46:21;;;;;;;34.33;3.50;;;18.00;60.20;;;;;;5050538;28;20029;-52
2021/05/29 06:48:49;;;;;;;12.75;3.22;;;18.00;60.80;;;;;;5050014;28;20028;-56
2021/05/29 06:51:32;;;;;;;20.05;2.65;;;18.00;60.00;;;;;;5049576;28;20029;-53
2021/05/29 06:54:04;;;;;;;;;;;18.00;59.90;;;;;;5054429;28;20112;-55
2021/05/29 06:59:16;;;;;;;21.33;11.57;;;18.00;60.20;;;;;;5074410;28;20039;-56
2021/05/29 07:01:44;;;;;;;20.00;8.75;;;18.00;60.90;;;;;;5075067;28;20028;-56
2021/05/29 07:04:11;;;;;;;21.95;13.25;;;18.00;60.20;;;;;;5063587;28;20036;-55
2021/05/29 07:06:39;;;;;;;25.67;13.60;;;17.90;59.90;;;;;;5071863;28;20033;-55
2021/05/29 07:09:06;;;;;;;16.95;10.20;;;17.80;59.30;;;;;;5075885;28;20079;-50
2021/05/29 07:11:37;;;;;;;14.40;8.63;;;17.70;59.30;;;;;;5071719;28;20044;-53
2021/05/29 07:14:05;;;;;;;38.17;27.27;;;17.70;58.30;;;;;;5067341;28;20040;-51
2021/05/29 07:16:38;;;;;;;14.40;9.32;;;17.70;58.10;;;;;;5070247;28;20028;-48
2021/05/29 07:19:05;;;;;;;16.25;11.90;;;17.60;59.00;;;;;;5072216;28;20048;-53
2021/05/29 07:21:35;;;;;;;18.17;11.40;;;17.60;58.70;;;;;;5072759;28;20012;-47
2021/05/29 07:24:02;;;;;;;16.30;10.88;;;17.60;58.60;;;;;;5068803;28;20024;-52
2021/05/29 07:26:30;;;;;;;20.90;15.05;;;17.60;59.30;;;;;;5072330;28;20857;-46
2021/05/29 07:28:57;;;;;;;24.05;12.85;;;17.60;59.40;;;;;;5072697;28;20127;-52
2021/05/29 07:31:24;;;;;;;19.38;13.05;;;17.70;59.90;;;;;;5072018;28;20016;-53
2021/05/29 07:33:54;;;;;;;19.02;12.00;;;17.70;60.30;;;;;;5069587;28;20062;-48
2021/05/29 07:36:23;;;;;;;17.20;12.52;;;17.70;60.70;;;;;;5072039;28;20024;-50
2021/05/29 07:38:51;;;;;;;16.63;12.82;;;17.70;60.80;;;;;;5072719;28;20029;-46
2021/05/29 07:41:20;;;;;;;18.13;12.50;;;17.70;60.80;;;;;;5072210;28;20462;-57
2021/05/29 07:43:48;;;;;;;19.48;12.35;;;17.70;60.70;;;;;;5065431;28;20033;-45
2021/05/29 07:46:17;;;;;;;18.00;12.23;;;17.70;60.90;;;;;;5070303;28;20035;-58
2021/05/29 07:48:44;;;;;;;26.90;11.75;;;17.70;61.00;;;;;;5070928;28;20367;-58
2021/05/29 07:51:12;;;;;;;17.33;14.23;;;17.80;61.60;;;;;;5072699;28;20025;-54
2021/05/29 07:53:43;;;;;;;22.17;13.70;;;17.80;62.30;;;;;;5068859;28;20757;-51
2021/05/29 07:56:18;;;;;;;16.50;11.85;;;17.80;62.30;;;;;;5071635;28;20104;-57
2021/05/29 07:58:48;;;;;;;16.13;11.13;;;17.80;62.60;;;;;;5072741;28;20604;-49
2021/05/29 08:01:16;;;;;;;13.10;10.32;;;17.80;62.70;;;;;;5072439;28;20032;-63
2021/05/29 08:03:44;;;;;;;22.33;9.60;;;17.80;62.60;;;;;;5066403;28;20082;-50
2021/05/29 08:06:17;;;;;;;13.85;8.88;;;17.70;62.80;;;;;;5070565;28;20039;-51
2021/05/29 08:08:46;;;;;;;17.52;10.70;;;17.70;62.70;;;;;;5070404;28;20033;-45
2021/05/29 08:11:21;;;;;;;10.90;8.45;;;17.70;62.70;;;;;;5070483;28;20135;-49
2021/05/29 08:13:49;;;;;;;10.63;8.77;;;17.70;62.80;;;;;;5064286;28;20032;-50
2021/05/29 08:16:18;;;;;;;12.25;8.82;;;17.60;62.80;;;;;;5070122;28;20031;-56
2021/05/29 08:18:45;;;;;;;12.00;8.82;;;17.60;62.80;;;;;;5070031;28;20080;-50
2021/05/29 08:21:13;;;;;;;16.90;9.10;;;17.60;62.80;;;;;;5071704;28;20031;-56
2021/05/29 08:23:41;;;;;;;18.80;8.57;;;17.50;62.50;;;;;;5068713;28;20100;-57
2021/05/29 08:26:09;;;;;;;13.60;9.35;;;17.50;62.90;;;;;;5071698;28;20032;-50
2021/05/29 08:28:37;;;;;;;21.27;12.20;;;17.50;63.00;;;;;;5069123;28;21446;-47
2021/05/29 08:31:05;;;;;;;30.13;16.90;;;17.50;63.10;;;;;;5070508;28;20475;-60
2021/05/29 08:33:32;;;;;;;31.55;18.67;;;17.50;63.40;;;;;;5067984;28;20097;-52
2021/05/29 08:35:59;;;;;;;34.97;19.40;;;17.40;63.70;;;;;;5070911;28;20141;-56
2021/05/29 08:38:27;;;;;;;40.50;21.02;;;17.40;63.50;;;;;;5071154;28;20040;-52
2021/05/29 08:40:55;;;;;;;35.88;20.23;;;17.40;63.50;;;;;;5072019;28;20029;-56
2021/05/29 08:43:22;;;;;;;30.13;19.73;;;17.40;63.50;;;;;;5067443;28;20024;-56
2021/05/29 08:45:49;;;;;;;36.67;20.33;;;17.40;63.40;;;;;;5071736;28;20029;-55
2021/05/29 08:48:17;;;;;;;36.45;20.95;;;17.40;63.40;;;;;;5071825;28;20100;-56
2021/05/29 08:51:30;;;;;;;34.10;21.48;;;17.50;63.60;;;;;;5070977;28;20099;-52
2021/05/29 08:53:33;;;;;;;30.00;18.67;;;17.40;63.60;;;;;;5063858;28;20041;-52
2021/05/29 08:56:01;;;;;;;35.90;20.10;;;17.50;63.60;;;;;;5066469;28;20029;-51
2021/05/29 08:58:30;;;;;;;46.50;19.48;;;17.50;63.20;;;;;;5070522;28;20364;-54
2021/05/29 09:01:00;;;;;;;33.35;19.23;;;17.50;64.00;;;;;;5071180;28;20483;-52
2021/05/29 09:03:52;;;;;;;31.20;18.52;;;17.50;63.30;;;;;;5067052;28;20063;-48
2021/05/29 09:06:42;;;;;;;34.55;18.75;;;17.50;63.40;;;;;;5069677;28;20089;-54
2021/05/29 09:09:12;;;;;;;32.47;19.70;;;17.50;63.40;;;;;;5070142;28;20376;-49
2021/05/29 09:11:57;;;;;;;34.58;19.48;;;17.50;63.30;;;;;;5070840;28;20051;-47
2021/05/29 09:14:35;;;;;;;27.80;17.67;;;17.50;63.40;;;;;;5066926;28;20021;-50
2021/05/29 09:17:17;;;;;;;29.60;19.27;;;17.50;63.30;;;;;;5070965;28;20467;-46
2021/05/29 09:20:05;;;;;;;;;;;17.40;63.10;;;;;;5066896;28;20570;-51
2021/05/29 09:22:59;;;;;;;29.05;18.33;;;17.40;63.20;;;;;;5070821;28;19904;-47
2021/05/29 09:25:28;;;;;;;35.45;19.13;;;17.50;63.20;;;;;;5067674;28;20837;-59
2021/05/29 09:28:03;;;;;;;28.48;18.45;;;17.50;63.40;;;;;;5070960;28;20024;-54
2021/05/29 09:30:46;;;;;;;35.08;19.83;;;17.50;63.30;;;;;;5070699;28;20025;-47
2021/05/29 09:33:28;;;;;;;29.75;18.80;;;17.50;63.10;;;;;;5063694;28;20572;-53
2021/05/29 09:36:01;;;;;;;33.33;18.97;;;17.40;63.10;;;;;;5070508;28;20036;-50
2021/05/29 09:38:38;;;;;;;35.47;18.73;;;17.40;63.30;;;;;;5070282;28;20249;-45
2021/05/29 09:41:17;;;;;;;27.70;17.10;;;17.40;63.90;;;;;;5070228;28;20172;-51
2021/05/29 09:43:56;;;;;;;30.60;18.75;;;17.40;63.30;;;;;;5066915;28;20060;-49
2021/05/29 09:46:24;;;;;;;27.30;16.33;;;17.50;63.60;;;;;;5067595;28;20032;-46
2021/05/29 09:49:01;;;;;;;32.63;17.65;;;17.40;63.40;;;;;;5069129;28;20040;-51
2021/05/29 09:51:33;;;;;;;30.65;18.02;;;17.40;63.30;;;;;;5070043;28;20478;-48
2021/05/29 09:54:11;;;;;;;34.05;17.10;;;17.50;63.50;;;;;;5066660;28;20033;-52
2021/05/29 09:56:42;;;;;;;30.70;17.30;;;17.40;63.50;;;;;;5069598;28;20589;-48
2021/05/29 09:59:23;;;;;;;26.70;16.17;;;17.40;63.40;;;;;;5072141;28;20056;-50
2021/05/29 10:01:52;;;;;;;29.73;17.40;;;17.40;63.30;;;;;;5070009;28;20032;-50
2021/05/29 10:04:31;;;;;;;26.60;15.88;;;17.40;63.30;;;;;;5065122;28;20055;-62
2021/05/29 10:07:00;;;;;;;27.45;15.38;;;17.40;63.30;;;;;;5069860;28;20116;-57
2021/05/29 10:09:29;;;;;;;27.00;16.42;;;17.40;63.30;;;;;;5069594;28;20360;-49
2021/05/29 10:11:57;;;;;;;25.35;15.45;;;17.40;63.10;;;;;;5070173;28;20044;-48
2021/05/29 10:14:25;;;;;;;27.65;15.65;;;17.40;63.00;;;;;;5066496;28;20114;-44
2021/05/29 10:16:52;;;;;;;26.38;15.10;;;17.40;63.20;;;;;;5069049;28;20128;-44
2021/05/29 10:19:21;;;;;;;27.33;14.70;;;17.40;63.40;;;;;;5068672;28;20044;-51
2021/05/29 10:21:53;;;;;;;23.50;14.45;;;17.40;62.80;;;;;;5066580;28;20043;-50
2021/05/29 10:24:22;;;;;;;23.70;15.00;;;17.40;63.30;;;;;;5065967;28;20085;-50
2021/05/29 10:26:51;;;;;;;25.70;14.35;;;17.40;63.20;;;;;;5065932;28;20029;-46
2021/05/29 10:29:28;;;;;;;21.05;13.80;;;17.40;63.30;;;;;;5066078;28;20040;-56
2021/05/29 10:32:15;;;;;;;23.25;13.00;;;17.40;63.10;;;;;;5069173;28;20063;-47
2021/05/29 10:35:09;;;;;;;26.27;14.10;;;17.30;63.10;;;;;;5066447;28;20052;-45
2021/05/29 10:37:41;;;;;;;21.70;13.27;;;17.30;63.20;;;;;;5066116;28;20039;-48
2021/05/29 10:40:30;;;;;;;23.13;13.93;;;17.30;63.20;;;;;;5069981;28;20024;-51
2021/05/29 10:43:15;;;;;;;22.48;13.95;;;17.30;63.20;;;;;;5069514;28;20033;-47
2021/05/29 10:45:54;;;;;;;18.85;12.07;;;17.30;63.10;;;;;;5068666;28;20053;-45
2021/05/29 10:48:26;;;;;;;17.38;11.63;;;17.30;63.10;;;;;;5070201;28;20494;-52
2021/05/29 10:51:09;;;;;;;18.10;11.90;;;17.30;63.10;;;;;;5065995;28;20040;-48
2021/05/29 10:53:54;;;;;;;23.08;12.80;;;17.30;63.10;;;;;;5065817;28;20035;-51
2021/05/29 10:56:22;;;;;;;16.55;11.07;;;17.30;63.20;;;;;;5070138;28;20067;-49
2021/05/29 10:58:58;;;;;;;22.65;11.20;;;17.30;63.20;;;;;;5069137;28;20367;-56
2021/05/29 11:01:45;;;;;;;19.75;11.38;;;17.30;63.20;;;;;;5066624;28;20045;-57
2021/05/29 11:04:15;;;;;;;17.05;11.60;;;17.30;63.10;;;;;;5049216;28;20045;-55
2021/05/29 11:06:51;;;;;;;14.60;10.32;;;17.30;63.10;;;;;;5069443;28;20024;-61
2021/05/29 11:09:32;;;;;;;18.40;11.38;;;17.30;63.00;;;;;;5067497;28;20040;-55
2021/05/29 11:12:08;;;;;;;15.32;10.25;;;17.30;63.00;;;;;;5066110;28;20041;-49
2021/05/29 11:14:56;;;;;;;22.17;11.68;;;17.30;63.10;;;;;;5062982;28;20031;-56
2021/05/29 11:17:28;;;;;;;18.90;10.05;;;17.30;62.90;;;;;;5069339;28;20024;-56
2021/05/29 11:20:04;;;;;;;16.67;9.75;;;17.30;63.00;;;;;;5069451;28;20021;-59
2021/05/29 11:23:00;;;;;;;14.90;9.63;;;17.30;63.00;;;;;;5067969;28;20040;-48
2021/05/29 11:25:40;;;;;;;17.02;9.07;;;17.30;63.10;;;;;;5055395;28;20098;-49
2021/05/29 11:28:08;;;;;;;14.75;9.10;;;17.20;62.90;;;;;;5066172;28;20502;-51
2021/05/29 11:30:36;;;;;;;16.35;10.00;;;17.30;63.00;;;;;;5068593;28;20472;-54
2021/05/29 11:35:36;;;;;;;12.17;8.50;;;17.20;63.00;;;;;;5068564;28;20524;-54
2021/05/29 11:38:21;;;;;;;16.27;10.02;;;17.20;62.90;;;;;;5072239;28;20032;-53
2021/05/29 11:40:59;;;;;;;15.82;9.45;;;17.20;62.70;;;;;;5072464;28;20028;-55
2021/05/29 11:43:45;;;;;;;17.13;10.25;;;17.20;62.90;;;;;;5073016;28;20116;-63
2021/05/29 11:46:18;;;;;;;15.75;9.25;;;17.20;62.90;;;;;;5075776;28;20360;-50
2021/05/29 11:48:59;;;;;;;13.43;9.68;;;17.20;62.90;;;;;;5075090;28;20028;-61
2021/05/29 11:51:30;;;;;;;16.05;9.40;;;17.20;62.80;;;;;;5074006;28;20032;-67
2021/05/29 11:54:08;;;;;;;14.52;9.32;;;17.20;62.90;;;;;;5075078;28;20082;-65
2021/05/29 11:56:44;;;;;;;12.90;8.32;;;17.10;62.90;;;;;;5075200;28;20125;-62
2021/05/29 11:59:15;;;;;;;14.02;8.65;;;17.10;63.00;;;;;;5074520;28;20056;-60
2021/05/29 12:01:46;;;;;;;15.60;9.13;;;17.10;63.10;;;;;;5075635;28;20132;-66
2021/05/29 12:04:18;;;;;;;13.88;8.82;;;17.10;63.20;;;;;;5075445;28;20491;-60
2021/05/29 12:06:46;;;;;;;13.40;8.13;;;17.10;63.20;;;;;;5073833;28;20032;-60
2021/05/29 12:09:18;;;;;;;14.90;8.35;;;17.00;63.20;;;;;;5074383;28;20037;-58
2021/05/29 12:15:22;;;;;;;12.98;7.90;;;17.00;63.40;;;;;;5075251;28;20035;-59
2021/05/29 12:17:49;;;;;;;13.52;8.60;;;17.00;63.50;;;;;;5074819;28;20035;-54
2021/05/29 12:20:17;;;;;;;13.18;7.88;;;16.90;63.50;;;;;;5074772;28;20035;-60
2021/05/29 12:22:44;;;;;;;16.23;8.57;;;16.90;63.70;;;;;;5074754;28;20024;-56
2021/05/29 12:25:12;;;;;;;12.30;8.02;;;16.90;63.70;;;;;;5074949;28;20036;-54
2021/05/29 12:27:44;;;;;;;15.70;8.45;;;16.90;63.90;;;;;;5074700;28;20032;-58
2021/05/29 12:30:13;;;;;;;12.85;7.90;;;16.90;63.90;;;;;;5074391;28;20403;-55
2021/05/29 12:32:43;;;;;;;11.60;7.63;;;16.90;64.20;;;;;;5074244;28;20168;-49
2021/05/29 12:35:30;;;;;;;12.18;6.97;;;16.90;64.30;;;;;;5074405;28;20387;-55
2021/05/29 12:38:18;;;;;;;12.02;7.28;;;16.90;64.50;;;;;;5074352;28;20424;-51
2021/05/29 12:41:14;;;;;;;14.77;7.90;;;16.80;64.70;;;;;;5074350;28;20035;-49
2021/05/29 12:43:43;;;;;;;12.68;7.10;;;16.80;64.60;;;;;;5074574;28;20116;-61
2021/05/29 12:46:26;;;;;;;11.32;7.47;;;16.80;64.70;;;;;;5073901;28;20032;-53
2021/05/29 12:49:13;;;;;;;11.40;6.57;;;16.70;64.90;;;;;;5073313;28;20036;-49
2021/05/29 12:51:50;;;;;;;11.30;7.20;;;16.70;64.80;;;;;;5074232;28;20036;-55
2021/05/29 12:54:18;;;;;;;11.93;6.70;;;16.80;64.90;;;;;;5074482;28;20032;-53
2021/05/29 12:56:54;;;;;;;10.43;7.28;;;16.70;65.00;;;;;;5074111;28;20038;-54
2021/05/29 12:59:28;;;;;;;10.68;7.07;;;16.70;65.10;;;;;;5074225;28;20442;-51
2021/05/29 13:07:31;;;;;;;9.40;6.60;;;16.70;65.10;;;;;;5074148;28;20433;-52
2021/05/29 13:12:32;;;;;;;10.60;6.70;;;16.60;65.10;;;;;;5073304;28;20572;-59
2021/05/29 13:15:12;;;;;;;10.15;6.28;;;16.60;65.10;;;;;;5073877;28;20042;-54
2021/05/29 13:17:39;;;;;;;9.32;5.65;;;16.60;65.20;;;;;;5073601;28;20017;-55
2021/05/29 13:20:14;;;;;;;12.20;6.43;;;16.60;65.10;;;;;;5073883;28;20078;-58